sensor_id;sensor_type;location;lat;lon;timestamp;P1;durP1;ratioP1;P2;durP2;ratioP2
8476;SDS011;4275;42.854;23.222;2023-07-28T00:00:07;9.32;;;9.02;;
8476;SDS011;4275;42.854;23.222;2023-07-28T00:02:34;8.70;;;8.50;;
8476;SDS011;4275;42.854;23.222;2023-07-28T00:05:01;8.68;;;8.48;;
8476;SDS011;4275;42.854;23.222;2023-07-28T00:07:28;8.50;;;8.30;;
8476;SDS011;4275;42.854;23.222;2023-07-28T00:09:59;8.40;;;8.20;;
8476;SDS011;4275;42.854;23.222;2023-07-28T00:12:26;8.18;;;7.97;;
8476;SDS011;4275;42.854;23.222;2023-07-28T00:14:53;8.60;;;8.40;;
8476;SDS011;4275;42.854;23.222;2023-07-28T00:17:21;7.50;;;7.30;;
8476;SDS011;4275;42.854;23.222;2023-07-28T00:19:48;7.47;;;7.28;;
8476;SDS011;4275;42.854;23.222;2023-07-28T00:22:15;8.13;;;7.93;;
8476;SDS011;4275;42.854;23.222;2023-07-28T00:24:42;8.23;;;8.02;;
8476;SDS011;4275;42.854;23.222;2023-07-28T00:27:09;7.70;;;7.50;;
8476;SDS011;4275;42.854;23.222;2023-07-28T00:29:38;7.22;;;7.03;;
8476;SDS011;4275;42.854;23.222;2023-07-28T00:32:05;7.00;;;6.80;;
8476;SDS011;4275;42.854;23.222;2023-07-28T00:34:34;7.13;;;6.93;;
8476;SDS011;4275;42.854;23.222;2023-07-28T00:37:01;6.88;;;6.68;;
8476;SDS011;4275;42.854;23.222;2023-07-28T00:39:28;6.80;;;6.60;;
8476;SDS011;4275;42.854;23.222;2023-07-28T00:41:55;6.60;;;6.40;;
8476;SDS011;4275;42.854;23.222;2023-07-28T00:44:22;6.90;;;6.70;;
8476;SDS011;4275;42.854;23.222;2023-07-28T00:46:49;7.13;;;6.93;;
8476;SDS011;4275;42.854;23.222;2023-07-28T00:49:17;7.10;;;6.90;;
8476;SDS011;4275;42.854;23.222;2023-07-28T00:51:45;6.90;;;6.70;;
8476;SDS011;4275;42.854;23.222;2023-07-28T00:54:12;7.07;;;6.88;;
8476;SDS011;4275;42.854;23.222;2023-07-28T00:56:40;7.10;;;6.90;;
8476;SDS011;4275;42.854;23.222;2023-07-28T00:59:07;7.03;;;6.82;;
8476;SDS011;4275;42.854;23.222;2023-07-28T01:01:34;7.03;;;6.82;;
8476;SDS011;4275;42.854;23.222;2023-07-28T01:04:00;7.10;;;6.90;;
8476;SDS011;4275;42.854;23.222;2023-07-28T01:06:29;7.00;;;6.80;;
8476;SDS011;4275;42.854;23.222;2023-07-28T01:09:05;6.90;;;6.70;;
8476;SDS011;4275;42.854;23.222;2023-07-28T01:11:38;6.90;;;6.70;;
8476;SDS011;4275;42.854;23.222;2023-07-28T01:14:19;7.00;;;6.80;;
8476;SDS011;4275;42.854;23.222;2023-07-28T01:16:45;7.28;;;7.07;;
8476;SDS011;4275;42.854;23.222;2023-07-28T01:19:12;6.78;;;6.57;;
8476;SDS011;4275;42.854;23.222;2023-07-28T01:21:43;6.90;;;6.70;;
8476;SDS011;4275;42.854;23.222;2023-07-28T01:24:15;7.00;;;6.80;;
8476;SDS011;4275;42.854;23.222;2023-07-28T01:26:56;6.63;;;6.43;;
8476;SDS011;4275;42.854;23.222;2023-07-28T01:29:26;7.10;;;6.90;;
8476;SDS011;4275;42.854;23.222;2023-07-28T01:31:54;7.47;;;7.28;;
8476;SDS011;4275;42.854;23.222;2023-07-28T01:34:21;7.32;;;7.13;;
8476;SDS011;4275;42.854;23.222;2023-07-28T01:36:48;7.40;;;7.20;;
8476;SDS011;4275;42.854;23.222;2023-07-28T01:39:15;7.13;;;6.93;;
8476;SDS011;4275;42.854;23.222;2023-07-28T01:41:41;7.10;;;6.90;;
8476;SDS011;4275;42.854;23.222;2023-07-28T01:44:11;7.30;;;7.10;;
8476;SDS011;4275;42.854;23.222;2023-07-28T01:46:38;6.90;;;6.70;;
8476;SDS011;4275;42.854;23.222;2023-07-28T01:49:05;7.00;;;6.80;;
8476;SDS011;4275;42.854;23.222;2023-07-28T01:51:32;6.60;;;6.40;;
8476;SDS011;4275;42.854;23.222;2023-07-28T01:53:59;6.65;;;6.45;;
8476;SDS011;4275;42.854;23.222;2023-07-28T01:56:26;6.30;;;6.20;;
8476;SDS011;4275;42.854;23.222;2023-07-28T01:58:53;6.70;;;6.50;;
8476;SDS011;4275;42.854;23.222;2023-07-28T02:01:22;6.80;;;6.60;;
8476;SDS011;4275;42.854;23.222;2023-07-28T02:03:49;6.60;;;6.40;;
8476;SDS011;4275;42.854;23.222;2023-07-28T02:06:16;6.72;;;6.53;;
8476;SDS011;4275;42.854;23.222;2023-07-28T02:08:43;6.13;;;6.03;;
8476;SDS011;4275;42.854;23.222;2023-07-28T02:11:10;6.65;;;6.45;;
8476;SDS011;4275;42.854;23.222;2023-07-28T02:13:36;6.50;;;6.40;;
8476;SDS011;4275;42.854;23.222;2023-07-28T02:16:03;6.25;;;6.15;;
8476;SDS011;4275;42.854;23.222;2023-07-28T02:18:32;6.45;;;6.30;;
8476;SDS011;4275;42.854;23.222;2023-07-28T02:20:59;5.93;;;5.82;;
8476;SDS011;4275;42.854;23.222;2023-07-28T02:23:26;6.65;;;6.45;;
8476;SDS011;4275;42.854;23.222;2023-07-28T02:25:53;6.93;;;6.72;;
8476;SDS011;4275;42.854;23.222;2023-07-28T02:28:20;6.88;;;6.68;;
8476;SDS011;4275;42.854;23.222;2023-07-28T02:30:47;6.80;;;6.60;;
8476;SDS011;4275;42.854;23.222;2023-07-28T02:33:14;6.97;;;6.78;;
8476;SDS011;4275;42.854;23.222;2023-07-28T02:35:42;6.90;;;6.70;;
8476;SDS011;4275;42.854;23.222;2023-07-28T02:38:09;6.60;;;6.40;;
8476;SDS011;4275;42.854;23.222;2023-07-28T02:40:36;6.40;;;6.30;;
8476;SDS011;4275;42.854;23.222;2023-07-28T02:43:03;6.65;;;6.45;;
8476;SDS011;4275;42.854;23.222;2023-07-28T02:45:30;6.70;;;6.50;;
8476;SDS011;4275;42.854;23.222;2023-07-28T02:47:57;7.40;;;7.20;;
8476;SDS011;4275;42.854;23.222;2023-07-28T02:50:24;7.30;;;7.10;;
8476;SDS011;4275;42.854;23.222;2023-07-28T02:52:53;7.45;;;7.25;;
8476;SDS011;4275;42.854;23.222;2023-07-28T02:55:20;7.20;;;7.00;;
8476;SDS011;4275;42.854;23.222;2023-07-28T02:57:47;7.30;;;7.10;;
8476;SDS011;4275;42.854;23.222;2023-07-28T03:00:14;7.50;;;7.30;;
8476;SDS011;4275;42.854;23.222;2023-07-28T03:02:41;7.70;;;7.50;;
8476;SDS011;4275;42.854;23.222;2023-07-28T03:05:08;7.90;;;7.70;;
8476;SDS011;4275;42.854;23.222;2023-07-28T03:07:35;8.10;;;7.90;;
8476;SDS011;4275;42.854;23.222;2023-07-28T03:10:03;7.93;;;7.72;;
8476;SDS011;4275;42.854;23.222;2023-07-28T03:12:31;8.05;;;7.85;;
8476;SDS011;4275;42.854;23.222;2023-07-28T03:14:58;8.30;;;8.10;;
8476;SDS011;4275;42.854;23.222;2023-07-28T03:17:25;8.40;;;8.20;;
8476;SDS011;4275;42.854;23.222;2023-07-28T03:19:52;8.68;;;8.48;;
8476;SDS011;4275;42.854;23.222;2023-07-28T03:22:19;8.63;;;8.43;;
8476;SDS011;4275;42.854;23.222;2023-07-28T03:24:46;8.90;;;8.70;;
8476;SDS011;4275;42.854;23.222;2023-07-28T03:27:14;8.57;;;8.38;;
8476;SDS011;4275;42.854;23.222;2023-07-28T03:29:41;8.63;;;8.43;;
8476;SDS011;4275;42.854;23.222;2023-07-28T03:38:53;8.15;;;7.95;;
8476;SDS011;4275;42.854;23.222;2023-07-28T03:44:43;7.35;;;7.15;;
8476;SDS011;4275;42.854;23.222;2023-07-28T03:53:54;8.98;;;8.77;;
8476;SDS011;4275;42.854;23.222;2023-07-28T03:59:40;11.40;;;11.10;;
8476;SDS011;4275;42.854;23.222;2023-07-28T04:02:08;12.18;;;11.77;;
8476;SDS011;4275;42.854;23.222;2023-07-28T04:04:35;12.15;;;11.75;;
8476;SDS011;4275;42.854;23.222;2023-07-28T04:13:06;13.27;;;12.88;;
8476;SDS011;4275;42.854;23.222;2023-07-28T04:15:33;14.30;;;13.80;;
8476;SDS011;4275;42.854;23.222;2023-07-28T04:18:01;14.80;;;14.30;;
8476;SDS011;4275;42.854;23.222;2023-07-28T04:20:28;15.15;;;14.55;;
8476;SDS011;4275;42.854;23.222;2023-07-28T04:22:55;15.77;;;15.18;;
8476;SDS011;4275;42.854;23.222;2023-07-28T04:25:22;16.80;;;16.10;;
8476;SDS011;4275;42.854;23.222;2023-07-28T04:27:49;17.35;;;16.65;;
8476;SDS011;4275;42.854;23.222;2023-07-28T04:30:16;17.38;;;16.67;;
8476;SDS011;4275;42.854;23.222;2023-07-28T04:32:43;17.42;;;16.63;;
8476;SDS011;4275;42.854;23.222;2023-07-28T04:35:12;17.80;;;17.08;;
8476;SDS011;4275;42.854;23.222;2023-07-28T04:37:55;18.38;;;17.58;;
8476;SDS011;4275;42.854;23.222;2023-07-28T04:40:31;18.75;;;17.95;;
8476;SDS011;4275;42.854;23.222;2023-07-28T04:42:58;18.70;;;17.90;;
8476;SDS011;4275;42.854;23.222;2023-07-28T04:45:25;18.67;;;17.88;;
8476;SDS011;4275;42.854;23.222;2023-07-28T04:47:58;18.60;;;17.80;;
8476;SDS011;4275;42.854;23.222;2023-07-28T04:50:27;18.35;;;17.55;;
8476;SDS011;4275;42.854;23.222;2023-07-28T04:59:02;17.55;;;16.75;;
8476;SDS011;4275;42.854;23.222;2023-07-28T05:01:29;17.50;;;16.70;;
8476;SDS011;4275;42.854;23.222;2023-07-28T05:03:56;17.20;;;16.50;;
8476;SDS011;4275;42.854;23.222;2023-07-28T05:06:25;17.63;;;16.92;;
8476;SDS011;4275;42.854;23.222;2023-07-28T05:08:51;17.10;;;16.40;;
8476;SDS011;4275;42.854;23.222;2023-07-28T05:11:18;17.15;;;16.45;;
8476;SDS011;4275;42.854;23.222;2023-07-28T05:13:45;17.33;;;16.63;;
8476;SDS011;4275;42.854;23.222;2023-07-28T05:16:12;17.23;;;16.52;;
8476;SDS011;4275;42.854;23.222;2023-07-28T05:18:39;17.10;;;16.40;;
8476;SDS011;4275;42.854;23.222;2023-07-28T05:21:08;17.05;;;16.35;;
8476;SDS011;4275;42.854;23.222;2023-07-28T05:23:36;17.45;;;16.75;;
8476;SDS011;4275;42.854;23.222;2023-07-28T05:26:03;17.63;;;16.92;;
8476;SDS011;4275;42.854;23.222;2023-07-28T05:28:33;17.27;;;16.58;;
8476;SDS011;4275;42.854;23.222;2023-07-28T05:31:04;16.98;;;16.27;;
8476;SDS011;4275;42.854;23.222;2023-07-28T05:33:32;16.63;;;15.93;;
8476;SDS011;4275;42.854;23.222;2023-07-28T05:36:00;17.15;;;16.45;;
8476;SDS011;4275;42.854;23.222;2023-07-28T05:38:28;17.00;;;16.30;;
8476;SDS011;4275;42.854;23.222;2023-07-28T05:40:57;17.02;;;16.33;;
8476;SDS011;4275;42.854;23.222;2023-07-28T05:43:26;17.10;;;16.40;;
8476;SDS011;4275;42.854;23.222;2023-07-28T05:45:53;16.33;;;15.73;;
8476;SDS011;4275;42.854;23.222;2023-07-28T05:48:20;16.80;;;16.10;;
8476;SDS011;4275;42.854;23.222;2023-07-28T05:50:47;16.73;;;16.02;;
8476;SDS011;4275;42.854;23.222;2023-07-28T05:53:16;16.90;;;16.25;;
8476;SDS011;4275;42.854;23.222;2023-07-28T05:55:43;16.77;;;16.08;;
8476;SDS011;4275;42.854;23.222;2023-07-28T05:58:12;16.23;;;15.52;;
8476;SDS011;4275;42.854;23.222;2023-07-28T06:00:39;16.88;;;16.17;;
8476;SDS011;4275;42.854;23.222;2023-07-28T06:03:06;16.60;;;15.90;;
8476;SDS011;4275;42.854;23.222;2023-07-28T06:05:34;16.70;;;16.00;;
8476;SDS011;4275;42.854;23.222;2023-07-28T06:08:01;17.25;;;16.55;;
8476;SDS011;4275;42.854;23.222;2023-07-28T06:10:31;17.25;;;16.55;;
8476;SDS011;4275;42.854;23.222;2023-07-28T06:12:59;17.13;;;16.42;;
8476;SDS011;4275;42.854;23.222;2023-07-28T06:15:27;17.30;;;16.60;;
8476;SDS011;4275;42.854;23.222;2023-07-28T06:17:54;16.98;;;16.27;;
8476;SDS011;4275;42.854;23.222;2023-07-28T06:20:21;17.17;;;16.48;;
8476;SDS011;4275;42.854;23.222;2023-07-28T06:22:48;17.50;;;16.80;;
8476;SDS011;4275;42.854;23.222;2023-07-28T06:25:15;17.23;;;16.52;;
8476;SDS011;4275;42.854;23.222;2023-07-28T06:27:42;17.48;;;16.77;;
8476;SDS011;4275;42.854;23.222;2023-07-28T06:30:10;17.60;;;16.90;;
8476;SDS011;4275;42.854;23.222;2023-07-28T06:32:39;17.17;;;16.48;;
8476;SDS011;4275;42.854;23.222;2023-07-28T06:35:06;17.23;;;16.52;;
8476;SDS011;4275;42.854;23.222;2023-07-28T06:37:34;17.42;;;16.73;;
8476;SDS011;4275;42.854;23.222;2023-07-28T06:40:03;17.25;;;16.55;;
8476;SDS011;4275;42.854;23.222;2023-07-28T06:42:32;17.38;;;16.67;;
8476;SDS011;4275;42.854;23.222;2023-07-28T06:44:59;17.13;;;16.42;;
8476;SDS011;4275;42.854;23.222;2023-07-28T06:47:27;16.70;;;16.00;;
8476;SDS011;4275;42.854;23.222;2023-07-28T06:49:55;17.20;;;16.50;;
8476;SDS011;4275;42.854;23.222;2023-07-28T06:52:22;17.75;;;17.05;;
8476;SDS011;4275;42.854;23.222;2023-07-28T06:54:49;17.25;;;16.55;;
8476;SDS011;4275;42.854;23.222;2023-07-28T06:57:16;17.85;;;17.15;;
8476;SDS011;4275;42.854;23.222;2023-07-28T06:59:43;17.50;;;16.80;;
8476;SDS011;4275;42.854;23.222;2023-07-28T07:02:11;18.48;;;17.70;;
8476;SDS011;4275;42.854;23.222;2023-07-28T07:04:38;18.27;;;17.58;;
8476;SDS011;4275;42.854;23.222;2023-07-28T07:07:06;17.58;;;16.88;;
8476;SDS011;4275;42.854;23.222;2023-07-28T07:09:33;17.83;;;17.05;;
8476;SDS011;4275;42.854;23.222;2023-07-28T07:12:01;17.90;;;17.20;;
8476;SDS011;4275;42.854;23.222;2023-07-28T07:14:28;18.00;;;17.30;;
8476;SDS011;4275;42.854;23.222;2023-07-28T07:16:55;17.20;;;16.60;;
8476;SDS011;4275;42.854;23.222;2023-07-28T07:19:22;16.55;;;15.85;;
8476;SDS011;4275;42.854;23.222;2023-07-28T07:21:49;18.05;;;17.33;;
8476;SDS011;4275;42.854;23.222;2023-07-28T07:24:18;18.20;;;17.50;;
8476;SDS011;4275;42.854;23.222;2023-07-28T07:26:45;18.50;;;17.70;;
8476;SDS011;4275;42.854;23.222;2023-07-28T07:29:12;18.30;;;17.50;;
8476;SDS011;4275;42.854;23.222;2023-07-28T07:31:39;17.88;;;17.17;;
8476;SDS011;4275;42.854;23.222;2023-07-28T07:34:06;17.90;;;17.20;;
8476;SDS011;4275;42.854;23.222;2023-07-28T07:36:33;17.60;;;16.90;;
8476;SDS011;4275;42.854;23.222;2023-07-28T07:39:00;16.83;;;16.13;;
8476;SDS011;4275;42.854;23.222;2023-07-28T07:41:29;17.20;;;16.50;;
8476;SDS011;4275;42.854;23.222;2023-07-28T07:43:56;18.00;;;17.20;;
8476;SDS011;4275;42.854;23.222;2023-07-28T07:46:23;17.83;;;17.13;;
8476;SDS011;4275;42.854;23.222;2023-07-28T07:48:50;17.58;;;16.88;;
8476;SDS011;4275;42.854;23.222;2023-07-28T07:51:17;18.17;;;17.38;;
8476;SDS011;4275;42.854;23.222;2023-07-28T07:53:44;18.25;;;17.45;;
8476;SDS011;4275;42.854;23.222;2023-07-28T07:56:11;18.30;;;17.50;;
8476;SDS011;4275;42.854;23.222;2023-07-28T07:58:40;18.45;;;17.65;;
8476;SDS011;4275;42.854;23.222;2023-07-28T08:01:07;18.38;;;17.58;;
8476;SDS011;4275;42.854;23.222;2023-07-28T08:03:34;18.45;;;17.65;;
8476;SDS011;4275;42.854;23.222;2023-07-28T08:06:03;17.48;;;16.77;;
8476;SDS011;4275;42.854;23.222;2023-07-28T08:08:30;18.15;;;17.35;;
8476;SDS011;4275;42.854;23.222;2023-07-28T08:10:57;18.90;;;18.10;;
8476;SDS011;4275;42.854;23.222;2023-07-28T08:13:25;18.83;;;18.02;;
8476;SDS011;4275;42.854;23.222;2023-07-28T08:15:55;18.65;;;17.85;;
8476;SDS011;4275;42.854;23.222;2023-07-28T08:18:22;18.95;;;18.15;;
8476;SDS011;4275;42.854;23.222;2023-07-28T08:20:49;18.90;;;18.10;;
8476;SDS011;4275;42.854;23.222;2023-07-28T08:23:16;19.35;;;18.45;;
8476;SDS011;4275;42.854;23.222;2023-07-28T08:25:43;18.95;;;18.05;;
8476;SDS011;4275;42.854;23.222;2023-07-28T08:28:10;18.65;;;17.75;;
8476;SDS011;4275;42.854;23.222;2023-07-28T08:30:37;18.65;;;17.75;;
8476;SDS011;4275;42.854;23.222;2023-07-28T08:33:06;19.05;;;18.13;;
8476;SDS011;4275;42.854;23.222;2023-07-28T08:35:36;18.88;;;17.98;;
8476;SDS011;4275;42.854;23.222;2023-07-28T08:38:03;18.50;;;17.60;;
8476;SDS011;4275;42.854;23.222;2023-07-28T08:40:30;18.75;;;17.85;;
8476;SDS011;4275;42.854;23.222;2023-07-28T08:42:57;18.67;;;17.77;;
8476;SDS011;4275;42.854;23.222;2023-07-28T08:45:23;18.63;;;17.73;;
8476;SDS011;4275;42.854;23.222;2023-07-28T08:47:51;18.98;;;18.08;;
8476;SDS011;4275;42.854;23.222;2023-07-28T08:50:20;19.30;;;18.30;;
8476;SDS011;4275;42.854;23.222;2023-07-28T08:52:47;18.80;;;17.90;;
8476;SDS011;4275;42.854;23.222;2023-07-28T08:55:15;18.83;;;17.92;;
8476;SDS011;4275;42.854;23.222;2023-07-28T08:57:43;18.77;;;17.88;;
8476;SDS011;4275;42.854;23.222;2023-07-28T09:00:10;19.23;;;18.33;;
8476;SDS011;4275;42.854;23.222;2023-07-28T09:02:39;19.48;;;18.58;;
8476;SDS011;4275;42.854;23.222;2023-07-28T09:05:07;19.15;;;18.35;;
8476;SDS011;4275;42.854;23.222;2023-07-28T09:07:46;19.10;;;18.20;;
8476;SDS011;4275;42.854;23.222;2023-07-28T09:10:13;18.40;;;17.50;;
8476;SDS011;4275;42.854;23.222;2023-07-28T09:12:47;17.67;;;16.83;;
8476;SDS011;4275;42.854;23.222;2023-07-28T09:15:15;17.58;;;16.77;;
8476;SDS011;4275;42.854;23.222;2023-07-28T09:17:42;17.63;;;16.75;;
8476;SDS011;4275;42.854;23.222;2023-07-28T09:20:13;17.40;;;16.60;;
8476;SDS011;4275;42.854;23.222;2023-07-28T09:22:41;17.67;;;16.77;;
8476;SDS011;4275;42.854;23.222;2023-07-28T09:25:14;17.88;;;16.98;;
8476;SDS011;4275;42.854;23.222;2023-07-28T09:27:48;18.25;;;17.35;;
8476;SDS011;4275;42.854;23.222;2023-07-28T09:30:16;18.33;;;17.42;;
8476;SDS011;4275;42.854;23.222;2023-07-28T09:32:46;18.45;;;17.55;;
8476;SDS011;4275;42.854;23.222;2023-07-28T09:35:14;18.92;;;18.02;;
8476;SDS011;4275;42.854;23.222;2023-07-28T09:37:43;18.75;;;17.85;;
8476;SDS011;4275;42.854;23.222;2023-07-28T09:40:14;18.85;;;17.95;;
8476;SDS011;4275;42.854;23.222;2023-07-28T09:42:44;18.40;;;17.50;;
8476;SDS011;4275;42.854;23.222;2023-07-28T09:45:14;18.50;;;17.60;;
8476;SDS011;4275;42.854;23.222;2023-07-28T09:47:43;18.40;;;17.50;;
8476;SDS011;4275;42.854;23.222;2023-07-28T09:50:11;18.50;;;17.60;;
8476;SDS011;4275;42.854;23.222;2023-07-28T09:52:41;18.83;;;17.92;;
8476;SDS011;4275;42.854;23.222;2023-07-28T09:55:10;18.50;;;17.60;;
8476;SDS011;4275;42.854;23.222;2023-07-28T09:57:41;18.48;;;17.58;;
8476;SDS011;4275;42.854;23.222;2023-07-28T10:00:12;18.25;;;17.45;;
8476;SDS011;4275;42.854;23.222;2023-07-28T10:02:41;17.83;;;17.02;;
8476;SDS011;4275;42.854;23.222;2023-07-28T10:05:09;18.08;;;17.27;;
8476;SDS011;4275;42.854;23.222;2023-07-28T10:07:38;18.38;;;17.48;;
8476;SDS011;4275;42.854;23.222;2023-07-28T10:10:07;17.90;;;17.10;;
8476;SDS011;4275;42.854;23.222;2023-07-28T10:12:41;18.45;;;17.55;;
8476;SDS011;4275;42.854;23.222;2023-07-28T10:15:12;18.35;;;17.45;;
8476;SDS011;4275;42.854;23.222;2023-07-28T10:17:45;18.40;;;17.50;;
8476;SDS011;4275;42.854;23.222;2023-07-28T10:20:27;18.33;;;17.42;;
8476;SDS011;4275;42.854;23.222;2023-07-28T10:23:01;18.27;;;17.38;;
8476;SDS011;4275;42.854;23.222;2023-07-28T10:25:31;17.95;;;17.05;;
8476;SDS011;4275;42.854;23.222;2023-07-28T10:28:05;18.25;;;17.35;;
8476;SDS011;4275;42.854;23.222;2023-07-28T10:30:36;18.10;;;17.20;;
8476;SDS011;4275;42.854;23.222;2023-07-28T10:33:05;18.05;;;17.15;;
8476;SDS011;4275;42.854;23.222;2023-07-28T10:35:32;18.00;;;17.10;;
8476;SDS011;4275;42.854;23.222;2023-07-28T10:41:07;18.25;;;17.35;;
8476;SDS011;4275;42.854;23.222;2023-07-28T10:43:37;18.10;;;17.20;;
8476;SDS011;4275;42.854;23.222;2023-07-28T10:46:04;17.98;;;17.08;;
8476;SDS011;4275;42.854;23.222;2023-07-28T10:48:34;18.48;;;17.48;;
8476;SDS011;4275;42.854;23.222;2023-07-28T10:51:01;18.65;;;17.65;;
8476;SDS011;4275;42.854;23.222;2023-07-28T10:53:28;18.33;;;17.33;;
8476;SDS011;4275;42.854;23.222;2023-07-28T10:55:55;18.77;;;17.77;;
8476;SDS011;4275;42.854;23.222;2023-07-28T10:58:22;17.88;;;16.98;;
8476;SDS011;4275;42.854;23.222;2023-07-28T11:00:51;17.80;;;17.00;;
8476;SDS011;4275;42.854;23.222;2023-07-28T11:03:18;18.13;;;17.23;;
8476;SDS011;4275;42.854;23.222;2023-07-28T11:05:45;17.95;;;17.05;;
8476;SDS011;4275;42.854;23.222;2023-07-28T11:08:15;18.25;;;17.35;;
8476;SDS011;4275;42.854;23.222;2023-07-28T11:10:43;18.20;;;17.30;;
8476;SDS011;4275;42.854;23.222;2023-07-28T11:13:10;18.52;;;17.60;;
8476;SDS011;4275;42.854;23.222;2023-07-28T11:15:38;18.48;;;17.48;;
8476;SDS011;4275;42.854;23.222;2023-07-28T11:18:06;18.80;;;17.80;;
8476;SDS011;4275;42.854;23.222;2023-07-28T11:20:34;18.88;;;17.88;;
8476;SDS011;4275;42.854;23.222;2023-07-28T11:23:02;18.90;;;17.90;;
8476;SDS011;4275;42.854;23.222;2023-07-28T11:25:30;18.45;;;17.55;;
8476;SDS011;4275;42.854;23.222;2023-07-28T11:28:00;18.10;;;17.20;;
8476;SDS011;4275;42.854;23.222;2023-07-28T11:30:28;18.27;;;17.38;;
8476;SDS011;4275;42.854;23.222;2023-07-28T11:32:55;18.02;;;17.13;;
8476;SDS011;4275;42.854;23.222;2023-07-28T11:35:23;17.70;;;16.80;;
8476;SDS011;4275;42.854;23.222;2023-07-28T11:37:52;17.83;;;16.92;;
8476;SDS011;4275;42.854;23.222;2023-07-28T11:40:20;18.25;;;17.35;;
8476;SDS011;4275;42.854;23.222;2023-07-28T11:42:48;18.23;;;17.33;;
8476;SDS011;4275;42.854;23.222;2023-07-28T11:45:17;18.15;;;17.25;;
8476;SDS011;4275;42.854;23.222;2023-07-28T11:47:57;18.35;;;17.45;;
8476;SDS011;4275;42.854;23.222;2023-07-28T11:50:27;18.85;;;17.85;;
8476;SDS011;4275;42.854;23.222;2023-07-28T11:52:56;18.25;;;17.35;;
8476;SDS011;4275;42.854;23.222;2023-07-28T11:55:24;18.00;;;17.10;;
8476;SDS011;4275;42.854;23.222;2023-07-28T11:57:52;18.67;;;17.67;;
8476;SDS011;4275;42.854;23.222;2023-07-28T12:00:24;18.25;;;17.35;;
8476;SDS011;4275;42.854;23.222;2023-07-28T12:03:02;18.70;;;17.70;;
8476;SDS011;4275;42.854;23.222;2023-07-28T12:05:32;18.15;;;17.25;;
8476;SDS011;4275;42.854;23.222;2023-07-28T12:08:00;18.48;;;17.48;;
8476;SDS011;4275;42.854;23.222;2023-07-28T12:10:28;18.55;;;17.55;;
8476;SDS011;4275;42.854;23.222;2023-07-28T12:12:57;18.30;;;17.40;;
8476;SDS011;4275;42.854;23.222;2023-07-28T12:15:30;18.52;;;17.52;;
8476;SDS011;4275;42.854;23.222;2023-07-28T12:18:03;18.85;;;17.85;;
8476;SDS011;4275;42.854;23.222;2023-07-28T12:20:35;18.60;;;17.60;;
8476;SDS011;4275;42.854;23.222;2023-07-28T12:23:03;18.50;;;17.50;;
8476;SDS011;4275;42.854;23.222;2023-07-28T12:25:31;18.88;;;17.88;;
8476;SDS011;4275;42.854;23.222;2023-07-28T12:27:58;18.45;;;17.45;;
8476;SDS011;4275;42.854;23.222;2023-07-28T12:30:26;18.77;;;17.77;;
8476;SDS011;4275;42.854;23.222;2023-07-28T12:32:53;18.80;;;17.80;;
8476;SDS011;4275;42.854;23.222;2023-07-28T12:35:20;18.55;;;17.55;;
8476;SDS011;4275;42.854;23.222;2023-07-28T12:37:50;19.35;;;18.35;;
8476;SDS011;4275;42.854;23.222;2023-07-28T12:40:17;18.58;;;17.67;;
8476;SDS011;4275;42.854;23.222;2023-07-28T12:42:45;18.25;;;17.35;;
8476;SDS011;4275;42.854;23.222;2023-07-28T12:45:13;18.00;;;17.10;;
8476;SDS011;4275;42.854;23.222;2023-07-28T12:47:40;18.52;;;17.52;;
8476;SDS011;4275;42.854;23.222;2023-07-28T12:50:08;18.25;;;17.25;;
8476;SDS011;4275;42.854;23.222;2023-07-28T12:52:36;18.15;;;17.25;;
8476;SDS011;4275;42.854;23.222;2023-07-28T12:55:05;18.70;;;17.70;;
8476;SDS011;4275;42.854;23.222;2023-07-28T12:57:32;18.98;;;17.98;;
8476;SDS011;4275;42.854;23.222;2023-07-28T12:59:59;18.95;;;17.95;;
8476;SDS011;4275;42.854;23.222;2023-07-28T13:02:26;18.33;;;17.42;;
8476;SDS011;4275;42.854;23.222;2023-07-28T13:04:53;18.67;;;17.67;;
8476;SDS011;4275;42.854;23.222;2023-07-28T13:07:20;19.20;;;18.20;;
8476;SDS011;4275;42.854;23.222;2023-07-28T13:09:48;18.67;;;17.77;;
8476;SDS011;4275;42.854;23.222;2023-07-28T13:12:16;18.80;;;17.80;;
8476;SDS011;4275;42.854;23.222;2023-07-28T13:14:43;18.98;;;17.98;;
8476;SDS011;4275;42.854;23.222;2023-07-28T13:17:10;19.38;;;18.38;;
8476;SDS011;4275;42.854;23.222;2023-07-28T13:19:38;18.95;;;18.05;;
8476;SDS011;4275;42.854;23.222;2023-07-28T13:22:05;18.70;;;17.70;;
8476;SDS011;4275;42.854;23.222;2023-07-28T13:24:32;18.30;;;17.35;;
8476;SDS011;4275;42.854;23.222;2023-07-28T13:26:59;18.27;;;17.27;;
8476;SDS011;4275;42.854;23.222;2023-07-28T13:29:28;18.55;;;17.55;;
8476;SDS011;4275;42.854;23.222;2023-07-28T13:31:57;18.52;;;17.52;;
8476;SDS011;4275;42.854;23.222;2023-07-28T13:34:25;18.30;;;17.30;;
8476;SDS011;4275;42.854;23.222;2023-07-28T13:36:52;18.65;;;17.65;;
8476;SDS011;4275;42.854;23.222;2023-07-28T13:39:19;18.60;;;17.60;;
8476;SDS011;4275;42.854;23.222;2023-07-28T13:41:46;18.35;;;17.35;;
8476;SDS011;4275;42.854;23.222;2023-07-28T13:44:13;18.30;;;17.30;;
8476;SDS011;4275;42.854;23.222;2023-07-28T13:46:41;18.63;;;17.63;;
8476;SDS011;4275;42.854;23.222;2023-07-28T13:49:08;18.98;;;17.98;;
8476;SDS011;4275;42.854;23.222;2023-07-28T13:51:36;18.80;;;17.80;;
8476;SDS011;4275;42.854;23.222;2023-07-28T13:54:03;18.58;;;17.58;;
8476;SDS011;4275;42.854;23.222;2023-07-28T13:56:30;18.85;;;17.85;;
8476;SDS011;4275;42.854;23.222;2023-07-28T13:58:57;18.25;;;17.25;;
8476;SDS011;4275;42.854;23.222;2023-07-28T14:01:24;18.55;;;17.55;;
8476;SDS011;4275;42.854;23.222;2023-07-28T14:03:53;18.70;;;17.70;;
8476;SDS011;4275;42.854;23.222;2023-07-28T14:06:20;18.40;;;17.40;;
8476;SDS011;4275;42.854;23.222;2023-07-28T14:08:47;18.60;;;17.60;;
8476;SDS011;4275;42.854;23.222;2023-07-28T14:11:14;18.45;;;17.45;;
8476;SDS011;4275;42.854;23.222;2023-07-28T14:13:41;18.10;;;17.20;;
8476;SDS011;4275;42.854;23.222;2023-07-28T14:16:08;18.55;;;17.52;;
8476;SDS011;4275;42.854;23.222;2023-07-28T14:18:36;18.35;;;17.35;;
8476;SDS011;4275;42.854;23.222;2023-07-28T14:21:04;18.55;;;17.55;;
8476;SDS011;4275;42.854;23.222;2023-07-28T14:23:31;18.98;;;17.88;;
8476;SDS011;4275;42.854;23.222;2023-07-28T14:25:58;18.80;;;17.80;;
8476;SDS011;4275;42.854;23.222;2023-07-28T14:28:25;18.55;;;17.55;;
8476;SDS011;4275;42.854;23.222;2023-07-28T14:30:52;18.48;;;17.48;;
8476;SDS011;4275;42.854;23.222;2023-07-28T14:33:19;18.85;;;17.75;;
8476;SDS011;4275;42.854;23.222;2023-07-28T14:35:47;18.95;;;17.85;;
8476;SDS011;4275;42.854;23.222;2023-07-28T14:38:16;19.50;;;18.48;;
8476;SDS011;4275;42.854;23.222;2023-07-28T14:40:44;18.45;;;17.45;;
8476;SDS011;4275;42.854;23.222;2023-07-28T14:43:14;18.63;;;17.63;;
8476;SDS011;4275;42.854;23.222;2023-07-28T14:45:41;18.60;;;17.60;;
8476;SDS011;4275;42.854;23.222;2023-07-28T14:48:08;18.58;;;17.58;;
8476;SDS011;4275;42.854;23.222;2023-07-28T14:50:35;19.08;;;18.02;;
8476;SDS011;4275;42.854;23.222;2023-07-28T14:53:02;18.77;;;17.77;;
8476;SDS011;4275;42.854;23.222;2023-07-28T14:55:30;18.95;;;17.95;;
8476;SDS011;4275;42.854;23.222;2023-07-28T14:57:57;18.98;;;17.98;;
8476;SDS011;4275;42.854;23.222;2023-07-28T15:00:24;18.73;;;17.70;;
8476;SDS011;4275;42.854;23.222;2023-07-28T15:02:51;18.70;;;17.70;;
8476;SDS011;4275;42.854;23.222;2023-07-28T15:05:18;19.00;;;17.90;;
8476;SDS011;4275;42.854;23.222;2023-07-28T15:07:45;19.00;;;17.90;;
8476;SDS011;4275;42.854;23.222;2023-07-28T15:10:12;18.77;;;17.77;;
8476;SDS011;4275;42.854;23.222;2023-07-28T15:12:40;18.65;;;17.65;;
8476;SDS011;4275;42.854;23.222;2023-07-28T15:15:09;18.70;;;17.70;;
8476;SDS011;4275;42.854;23.222;2023-07-28T15:17:36;18.60;;;17.60;;
8476;SDS011;4275;42.854;23.222;2023-07-28T15:20:04;18.52;;;17.52;;